Time;durP1;ratioP1;P1;durP2;ratioP2;P2;SDS_P1;SDS_P2;PMS_P1;PMS_P2;Temp;Humidity;BMP_temperature;BMP_pressure;BME280_temperature;BME280_humidity;BME280_pressure;Samples;Min_cycle;Max_cycle;Signal;HPM_P1;HPM_P2
2022/01/14 00:00:06;;;;;;;16.63;7.07;;;-0.80;99.90;;;;;;6289790;22;20011;-90
2022/01/14 00:02:32;;;;;;;21.53;7.43;;;-0.80;99.90;;;;;;6289475;22;20311;-88
2022/01/14 00:05:02;;;;;;;17.87;7.77;;;-0.80;99.90;;;;;;6289662;22;20065;-91
2022/01/14 00:07:43;;;;;;;18.50;7.80;;;-0.80;99.90;;;;;;6290480;22;20003;-92
2022/01/14 00:10:10;;;;;;;19.23;8.70;;;-0.90;99.90;;;;;;6292527;22;20002;-90
2022/01/14 00:12:50;;;;;;;18.37;7.97;;;-0.90;99.90;;;;;;6294416;22;19999;-92
2022/01/14 00:15:27;;;;;;;19.20;8.80;;;-0.90;99.90;;;;;;6294044;22;20519;-90
2022/01/14 00:17:53;;;;;;;19.00;8.77;;;-0.90;99.90;;;;;;6295722;22;20000;-89
2022/01/14 00:20:21;;;;;;;24.03;8.43;;;-0.90;99.90;;;;;;6294842;22;20004;-89
2022/01/14 00:22:47;;;;;;;20.03;8.53;;;-0.90;99.90;;;;;;6295583;22;19999;-89
2022/01/14 00:33:34;;;;;;;24.70;9.07;;;-1.00;99.90;;;;;;6294522;22;20027;-87
2022/01/14 00:36:00;;;;;;;19.13;8.73;;;-1.00;99.90;;;;;;6289386;22;20015;-88
2022/01/14 00:38:25;;;;;;;20.73;8.37;;;-1.00;99.90;;;;;;6261869;22;20007;-89
2022/01/14 00:40:54;;;;;;;21.50;8.47;;;-1.00;99.90;;;;;;6259586;22;20011;-87
2022/01/14 00:43:20;;;;;;;18.73;7.60;;;-1.00;99.90;;;;;;6288327;22;20090;-90
2022/01/14 00:45:51;;;;;;;18.87;7.77;;;-1.00;99.90;;;;;;6262846;22;19999;-88
2022/01/14 00:48:20;;;;;;;19.60;7.70;;;-1.00;99.90;;;;;;6288517;22;19996;-91
2022/01/14 00:50:48;;;;;;;21.23;8.87;;;-1.00;99.90;;;;;;6262683;22;20014;-90
2022/01/14 00:53:16;;;;;;;14.73;7.27;;;-1.00;99.90;;;;;;6261136;22;20022;-90
2022/01/14 00:55:54;;;;;;;21.37;8.33;;;-1.00;99.90;;;;;;6262860;22;20015;-90
2022/01/14 01:01:07;;;;;;;18.47;7.63;;;-1.00;99.90;;;;;;6288880;22;20022;-89
2022/01/14 01:03:51;;;;;;;26.50;8.60;;;-1.10;99.90;;;;;;6262736;22;20003;-89
2022/01/14 01:06:20;;;;;;;17.37;6.80;;;-1.00;99.90;;;;;;6290016;22;20418;-89
2022/01/14 01:08:48;;;;;;;17.40;8.20;;;-1.10;99.90;;;;;;6261072;22;20015;-90
2022/01/14 01:11:14;;;;;;;20.17;8.33;;;-1.10;99.90;;;;;;6261765;22;20093;-89
2022/01/14 01:13:50;;;;;;;18.37;7.77;;;-1.10;99.90;;;;;;6288945;22;20445;-90
2022/01/14 01:16:18;;;;;;;19.10;7.30;;;-1.10;99.90;;;;;;6262308;22;20030;-89
2022/01/14 01:18:44;;;;;;;19.60;8.83;;;-1.10;99.90;;;;;;6261112;22;20090;-91
2022/01/14 01:21:10;;;;;;;15.47;7.87;;;-1.10;99.90;;;;;;6260086;22;20004;-89
2022/01/14 01:23:36;;;;;;;20.87;7.87;;;-1.10;99.90;;;;;;6288417;22;20000;-89
2022/01/14 01:26:11;;;;;;;14.50;7.47;;;-1.10;99.90;;;;;;6291604;22;19999;-89
2022/01/14 01:28:51;;;;;;;18.77;7.60;;;-1.00;99.90;;;;;;6297201;22;20004;-88
2022/01/14 01:31:35;;;;;;;15.60;7.43;;;-1.00;99.90;;;;;;6299191;22;20025;-89
2022/01/14 01:34:03;;;;;;;23.83;8.03;;;-1.00;99.90;;;;;;6262302;22;20137;-89
2022/01/14 01:36:29;;;;;;;15.60;6.93;;;-1.00;99.90;;;;;;6260405;22;20015;-88
2022/01/14 01:38:56;;;;;;;18.90;8.40;;;-1.00;99.90;;;;;;6288626;22;20079;-89
2022/01/14 01:41:32;;;;;;;;;;;;;;;;;;;;;
2022/01/14 01:43:59;;;;;;;19.33;7.87;;;-1.00;99.90;;;;;;6290102;22;20476;-90
2022/01/14 01:46:33;;;;;;;18.47;7.97;;;-1.00;99.90;;;;;;6263963;22;20019;-90
2022/01/14 01:48:59;;;;;;;18.33;7.83;;;-1.00;99.90;;;;;;6262910;22;19996;-90
2022/01/14 01:51:26;;;;;;;16.33;7.70;;;-1.00;99.90;;;;;;6289767;22;20000;-90
2022/01/14 01:53:51;;;;;;;15.10;6.87;;;-1.10;99.90;;;;;;6261718;22;20102;-87
2022/01/14 01:56:21;;;;;;;18.27;7.87;;;-1.10;99.90;;;;;;6262548;22;20015;-90
2022/01/14 01:58:49;;;;;;;19.30;8.53;;;-1.00;99.90;;;;;;6290202;22;19999;-89
2022/01/14 02:01:16;;;;;;;20.10;7.63;;;-1.10;99.90;;;;;;6289643;22;20022;-92
2022/01/14 02:03:45;;;;;;;15.70;7.67;;;-1.10;99.90;;;;;;6262856;22;19996;-90
2022/01/14 02:06:11;;;;;;;16.20;7.67;;;-1.10;99.90;;;;;;6285231;22;19995;-88
2022/01/14 02:08:36;;;;;;;20.60;7.90;;;-1.20;99.90;;;;;;6283708;22;20022;-89
2022/01/14 02:11:03;;;;;;;17.97;8.00;;;-1.20;99.90;;;;;;6286155;22;20025;-89
2022/01/14 02:13:32;;;;;;;20.93;7.63;;;-1.20;99.90;;;;;;6257726;22;20473;-89
2022/01/14 02:26:54;;;;;;;17.13;7.57;;;-1.20;99.90;;;;;;6298986;22;20004;-89
2022/01/14 02:29:29;;;;;;;17.53;8.30;;;-1.10;99.90;;;;;;6261448;22;20101;-90
2022/01/14 02:31:57;;;;;;;18.73;7.97;;;-1.30;99.90;;;;;;6288368;22;19995;-88
2022/01/14 02:34:29;;;;;;;16.77;8.00;;;-1.20;99.90;;;;;;6288243;22;19999;-90
2022/01/14 02:36:54;;;;;;;17.70;6.70;;;-1.30;99.90;;;;;;6290416;22;20003;-91
2022/01/14 02:39:26;;;;;;;18.27;8.00;;;-1.20;99.90;;;;;;6288422;22;20043;-91
2022/01/14 02:41:57;;;;;;;18.23;7.47;;;-1.30;99.90;;;;;;6287897;22;20126;-89
2022/01/14 02:44:25;;;;;;;21.80;8.37;;;-1.20;99.90;;;;;;6283882;22;20000;-90
2022/01/14 02:46:57;;;;;;;19.37;7.50;;;-1.10;99.90;;;;;;6290107;22;20011;-90
2022/01/14 02:49:27;;;;;;;20.43;7.80;;;-1.20;99.90;;;;;;6289169;22;20003;-89
2022/01/14 02:51:54;;;;;;;19.10;7.83;;;-1.30;99.90;;;;;;6289645;22;20079;-90
2022/01/14 02:54:23;;;;;;;18.27;7.67;;;-1.30;99.90;;;;;;6287529;22;20078;-89
2022/01/14 02:56:52;;;;;;;17.87;7.53;;;-1.30;99.90;;;;;;6287832;22;20006;-91
2022/01/14 02:59:20;;;;;;;17.80;8.47;;;-1.30;99.90;;;;;;6287692;22;19999;-91
2022/01/14 03:01:48;;;;;;;24.87;8.50;;;-1.40;99.90;;;;;;6286244;22;20054;-88
2022/01/14 03:04:23;;;;;;;20.13;7.23;;;-1.40;99.90;;;;;;6287378;22;20457;-88
2022/01/14 03:06:53;;;;;;;16.07;8.60;;;-1.50;99.90;;;;;;6289331;22;19987;-91
2022/01/14 03:09:19;;;;;;;18.13;8.20;;;-1.50;99.90;;;;;;6287453;22;20019;-91
2022/01/14 03:11:55;;;;;;;20.43;8.50;;;-1.50;99.90;;;;;;6287174;22;20015;-91
2022/01/14 03:14:26;;;;;;;19.10;7.80;;;-1.50;99.90;;;;;;6286992;22;19996;-91
2022/01/14 03:17:03;;;;;;;20.40;7.27;;;-1.50;99.90;;;;;;6286899;22;20023;-88
2022/01/14 03:19:40;;;;;;;20.83;8.33;;;-1.60;99.90;;;;;;6288400;22;20064;-90
2022/01/14 03:22:19;;;;;;;19.80;8.63;;;-1.60;99.90;;;;;;6287178;22;20004;-87
2022/01/14 03:27:23;;;;;;;;;;;;;;;;;;;;;
2022/01/14 03:29:57;;;;;;;18.97;8.87;;;-1.60;99.90;;;;;;6309679;22;20493;-89
2022/01/14 03:35:24;;;;;;;15.57;7.87;;;-1.60;99.90;;;;;;6310149;22;20017;-89
2022/01/14 03:37:55;;;;;;;17.20;7.47;;;-1.60;99.90;;;;;;6282966;22;20010;-88
2022/01/14 03:40:31;;;;;;;;;;;;;;;;;;;;;
2022/01/14 03:43:14;;;;;;;20.13;8.23;;;-1.60;99.90;;;;;;6311358;22;20019;-89
2022/01/14 03:45:42;;;;;;;16.98;7.68;;;-1.60;99.90;;;;;;6281484;22;20037;-89
2022/01/14 03:51:23;;;;;;;20.50;8.57;;;-1.60;99.90;;;;;;6297700;22;20053;-89
2022/01/14 03:53:57;;;;;;;20.50;8.43;;;-1.60;99.90;;;;;;6281929;22;20465;-89
2022/01/14 03:56:31;;;;;;;21.47;8.63;;;-1.60;99.90;;;;;;6307097;22;20070;-89
2022/01/14 03:58:57;;;;;;;22.60;8.67;;;-1.60;99.90;;;;;;6285995;22;20014;-89
2022/01/14 04:01:31;;;;;;;17.13;7.90;;;-1.50;99.90;;;;;;6282941;22;20004;-88
2022/01/14 04:03:59;;;;;;;27.00;9.73;;;-1.50;99.90;;;;;;6290368;22;19999;-89
2022/01/14 04:06:30;;;;;;;19.03;8.57;;;-1.50;99.90;;;;;;6291299;22;19999;-89
2022/01/14 04:09:09;;;;;;;17.73;7.53;;;-1.60;99.90;;;;;;6291262;22;20017;-89
2022/01/14 04:11:46;;;;;;;;;;;;;;;;;;;;;
2022/01/14 04:16:53;;;;;;;19.97;7.87;;;-1.60;99.90;;;;;;6317237;22;20007;-89
2022/01/14 04:19:28;;;;;;;18.50;7.97;;;-1.40;99.90;;;;;;6281124;22;20082;-89
2022/01/14 04:21:57;;;;;;;16.10;7.13;;;-1.40;99.90;;;;;;6281857;22;20015;-88
2022/01/14 04:24:23;;;;;;;18.70;8.70;;;-1.60;99.90;;;;;;6308064;22;20000;-89
2022/01/14 04:26:48;;;;;;;17.70;7.33;;;-1.50;99.90;;;;;;6279151;22;20430;-88
2022/01/14 04:29:20;;;;;;;16.50;7.73;;;-1.60;99.90;;;;;;6309704;22;20003;-89
2022/01/14 04:31:46;;;;;;;18.80;7.93;;;-1.50;99.90;;;;;;6311029;22;20497;-89
2022/01/14 04:34:14;;;;;;;18.07;7.67;;;-1.50;99.90;;;;;;6310309;22;20043;-89
2022/01/14 04:36:51;;;;;;;21.70;9.00;;;-1.50;99.90;;;;;;6339641;22;20080;-89
2022/01/14 04:39:28;;;;;;;18.00;7.00;;;-1.60;99.90;;;;;;6313205;22;20127;-88
2022/01/14 04:41:53;;;;;;;16.13;7.93;;;-1.60;99.90;;;;;;6312911;22;20003;-88
2022/01/14 04:44:19;;;;;;;18.67;8.30;;;-1.60;99.90;;;;;;6310337;22;20328;-89
2022/01/14 04:47:00;;;;;;;20.23;9.13;;;-1.70;99.90;;;;;;6310074;22;20096;-89
2022/01/14 04:49:26;;;;;;;20.47;8.20;;;-1.70;99.90;;;;;;6338250;22;19995;-89
2022/01/14 04:51:51;;;;;;;19.30;8.73;;;-1.70;99.90;;;;;;6310018;22;19995;-89
2022/01/14 04:54:19;;;;;;;15.90;7.60;;;-1.70;99.90;;;;;;6310193;22;20045;-89
2022/01/14 04:56:47;;;;;;;18.80;8.37;;;-1.70;99.90;;;;;;6309823;22;20003;-89
2022/01/14 04:59:37;;;;;;;;;;;;;;;;;;;;;
2022/01/14 05:02:20;;;;;;;17.27;8.30;;;-1.70;99.90;;;;;;6341771;22;20150;-89
2022/01/14 05:08:36;;;;;;;17.93;7.23;;;-1.70;99.90;;;;;;6314402;22;20061;-89
2022/01/14 05:11:35;;;;;;;20.00;8.20;;;-1.80;99.90;;;;;;6268147;22;20086;-88
2022/01/14 05:22:42;;;;;;;14.60;7.47;;;-2.00;99.90;;;;;;6308290;22;20456;-89
2022/01/14 05:25:28;;;;;;;;;;;;;;;;;;;;;
2022/01/14 05:28:20;;;;;;;17.70;7.00;;;-1.90;99.90;;;;;;6308996;22;20066;-90
2022/01/14 05:31:21;;;;;;;;;;;;;;;;;;;;;
2022/01/14 05:42:39;;;;;;;21.00;8.23;;;-1.80;99.90;;;;;;6308151;22;20020;-90
2022/01/14 05:45:06;;;;;;;22.23;8.37;;;-1.80;99.90;;;;;;6278779;22;20472;-89
2022/01/14 05:47:42;;;;;;;;;;;;;;;;;;;;;
2022/01/14 05:51:01;;;;;;;16.27;7.40;;;-1.70;99.90;;;;;;6306296;22;20082;-89
2022/01/14 05:53:23;;;;;;;16.53;7.63;;;-1.80;99.90;;;;;;6294095;22;20011;-90
2022/01/14 05:56:10;;;;;;;21.67;8.17;;;-1.70;99.90;;;;;;6278690;22;20010;-89
2022/01/14 05:59:05;;;;;;;19.20;6.83;;;-1.70;99.90;;;;;;6276724;22;20125;-89
2022/01/14 06:01:34;;;;;;;19.67;8.20;;;-1.80;99.90;;;;;;6310905;22;19999;-89
2022/01/14 06:04:07;;;;;;;14.23;7.43;;;-1.70;99.90;;;;;;6306315;22;20506;-90
2022/01/14 06:06:34;;;;;;;18.10;8.07;;;-1.70;99.90;;;;;;6280101;22;19999;-90
2022/01/14 06:09:03;;;;;;;20.33;7.83;;;-1.70;99.90;;;;;;6279643;22;20021;-90
2022/01/14 06:11:31;;;;;;;21.00;8.57;;;-1.80;99.90;;;;;;6277711;22;20043;-89
2022/01/14 06:14:00;;;;;;;18.73;8.43;;;-1.80;99.90;;;;;;6305782;22;20013;-89
2022/01/14 06:16:26;;;;;;;21.53;8.07;;;-1.70;99.90;;;;;;6278179;22;20069;-89
2022/01/14 06:18:58;;;;;;;19.73;7.53;;;-1.90;99.90;;;;;;6304530;22;20510;-89
2022/01/14 06:21:24;;;;;;;16.02;8.02;;;-1.90;99.90;;;;;;6278741;22;20003;-89
2022/01/14 06:23:50;;;;;;;16.90;7.10;;;-2.00;99.90;;;;;;6304092;22;20010;-90
2022/01/14 06:26:15;;;;;;;19.33;7.70;;;-2.10;99.90;;;;;;6305796;22;20011;-90
2022/01/14 06:28:47;;;;;;;20.33;8.00;;;-2.10;99.90;;;;;;6304887;22;20005;-90
2022/01/14 06:31:35;;;;;;;14.82;7.80;;;-2.10;99.90;;;;;;6304780;22;20086;-90
2022/01/14 06:34:04;;;;;;;16.13;7.40;;;-2.20;99.90;;;;;;6279273;22;20000;-90
2022/01/14 06:36:30;;;;;;;21.37;7.67;;;-2.20;99.90;;;;;;6306634;22;19995;-89
2022/01/14 06:38:56;;;;;;;16.07;8.00;;;-2.00;99.90;;;;;;6305485;22;20011;-89
2022/01/14 06:41:21;;;;;;;17.57;7.70;;;-2.10;99.90;;;;;;6303900;22;20065;-89
2022/01/14 06:43:49;;;;;;;17.83;8.30;;;-2.00;99.90;;;;;;6303996;22;20393;-90
2022/01/14 06:46:15;;;;;;;18.60;8.77;;;-2.00;99.90;;;;;;6302588;22;20039;-89
2022/01/14 06:48:40;;;;;;;18.67;8.30;;;-2.10;99.90;;;;;;6305214;22;20006;-90
2022/01/14 06:51:15;;;;;;;17.77;7.10;;;-2.10;99.90;;;;;;6308452;22;19999;-89
2022/01/14 06:53:43;;;;;;;16.87;8.70;;;-2.00;99.90;;;;;;6283932;22;19999;-89
2022/01/14 06:56:11;;;;;;;16.77;7.47;;;-2.00;99.90;;;;;;6303287;22;20003;-89
2022/01/14 06:58:38;;;;;;;20.37;9.30;;;-2.00;99.90;;;;;;6303810;22;20014;-90
2022/01/14 07:01:04;;;;;;;15.97;7.93;;;-2.00;99.90;;;;;;6303082;22;20007;-89
2022/01/14 07:03:30;;;;;;;19.87;8.80;;;-2.00;99.90;;;;;;6305242;22;20467;-88
2022/01/14 07:05:56;;;;;;;16.70;8.03;;;-2.00;99.90;;;;;;6304029;22;20003;-89
2022/01/14 07:08:21;;;;;;;18.97;8.07;;;-2.00;99.90;;;;;;6278527;22;19999;-90
2022/01/14 07:10:47;;;;;;;15.20;7.80;;;-1.90;99.90;;;;;;6303639;22;20056;-90
2022/01/14 07:13:13;;;;;;;23.20;8.33;;;-1.80;99.90;;;;;;6303497;22;20026;-90
2022/01/14 07:15:41;;;;;;;17.67;7.80;;;-1.80;99.90;;;;;;6304386;22;20303;-91
2022/01/14 07:18:10;;;;;;;18.13;7.77;;;-1.80;99.90;;;;;;6303621;22;20094;-90
2022/01/14 07:20:35;;;;;;;14.93;7.27;;;-1.70;99.90;;;;;;6303387;22;20014;-90
2022/01/14 07:23:01;;;;;;;20.73;8.20;;;-1.70;99.90;;;;;;6304186;22;20099;-90
2022/01/14 07:25:30;;;;;;;16.30;7.33;;;-1.70;99.90;;;;;;6304166;22;20011;-91
2022/01/14 07:27:57;;;;;;;22.50;8.93;;;-1.60;99.90;;;;;;6304123;22;20086;-90
2022/01/14 07:30:23;;;;;;;17.43;7.97;;;-1.60;99.90;;;;;;6277821;22;20038;-90
2022/01/14 07:32:49;;;;;;;18.03;7.60;;;-1.60;99.90;;;;;;6278212;22;20010;-90
2022/01/14 07:35:15;;;;;;;16.57;8.60;;;-1.60;99.90;;;;;;6278428;22;20007;-90
2022/01/14 07:37:41;;;;;;;18.47;8.00;;;-1.50;99.90;;;;;;6303960;22;20009;-90
2022/01/14 07:40:08;;;;;;;16.53;8.23;;;-1.50;99.90;;;;;;6276178;22;20008;-88
2022/01/14 07:42:34;;;;;;;17.50;7.80;;;-1.50;99.90;;;;;;6275816;22;20011;-88
2022/01/14 07:45:00;;;;;;;15.50;7.23;;;-1.50;99.90;;;;;;6300536;22;20301;-89
2022/01/14 07:47:26;;;;;;;16.87;7.53;;;-1.50;99.90;;;;;;6275434;22;20003;-88
2022/01/14 07:49:53;;;;;;;17.90;7.70;;;-1.50;99.90;;;;;;6301022;22;20345;-88
2022/01/14 07:52:19;;;;;;;19.40;8.20;;;-1.50;99.90;;;;;;6302581;22;20054;-89
2022/01/14 07:54:45;;;;;;;18.67;7.50;;;-1.50;99.90;;;;;;6303788;22;20022;-89
2022/01/14 07:57:14;;;;;;;16.63;7.93;;;-1.50;99.90;;;;;;6303272;22;20003;-88
2022/01/14 07:59:40;;;;;;;19.37;8.37;;;-1.50;99.90;;;;;;6302729;22;20003;-88
2022/01/14 08:02:06;;;;;;;16.23;6.97;;;-1.50;99.90;;;;;;6302634;22;20004;-89
2022/01/14 08:04:34;;;;;;;18.13;7.63;;;-1.40;99.90;;;;;;6302961;22;20456;-88
2022/01/14 08:07:08;;;;;;;19.57;7.93;;;-1.40;99.90;;;;;;6303621;22;20011;-89
2022/01/14 08:09:36;;;;;;;15.70;7.57;;;-1.40;99.90;;;;;;6277367;22;20436;-88
2022/01/14 08:12:03;;;;;;;14.87;6.57;;;-1.30;99.90;;;;;;6280536;22;20003;-89
2022/01/14 08:14:28;;;;;;;20.73;7.30;;;-1.30;99.90;;;;;;6284670;22;20003;-87
2022/01/14 08:16:54;;;;;;;18.37;8.30;;;-1.20;99.90;;;;;;6311630;22;20063;-87
2022/01/14 08:19:19;;;;;;;16.67;8.37;;;-1.20;99.90;;;;;;6308933;22;20422;-88
2022/01/14 08:21:46;;;;;;;18.53;8.10;;;-1.20;99.90;;;;;;6279242;22;20094;-88
2022/01/14 08:24:12;;;;;;;20.73;8.77;;;-1.20;99.90;;;;;;6279988;22;20007;-89
2022/01/14 08:26:37;;;;;;;20.70;8.87;;;-1.20;99.90;;;;;;6307836;22;20006;-88
2022/01/14 08:29:03;;;;;;;22.07;8.90;;;-1.20;99.90;;;;;;6306421;22;20080;-89
2022/01/14 08:31:29;;;;;;;19.67;9.03;;;-1.10;99.90;;;;;;6279490;22;20017;-89
2022/01/14 08:33:54;;;;;;;18.13;8.93;;;-1.00;99.90;;;;;;6306361;22;20014;-89
2022/01/14 08:36:20;;;;;;;23.10;9.23;;;-0.90;99.90;;;;;;6280040;22;20010;-89
2022/01/14 08:38:46;;;;;;;16.60;8.43;;;-0.70;99.90;;;;;;6306802;22;20450;-89
2022/01/14 08:41:12;;;;;;;22.57;9.13;;;-0.50;99.90;;;;;;6305753;22;20347;-88
2022/01/14 08:43:37;;;;;;;21.43;8.30;;;-0.40;99.90;;;;;;6304788;22;20468;-89
2022/01/14 08:46:03;;;;;;;19.30;9.00;;;-0.40;99.90;;;;;;6304542;22;20402;-89
2022/01/14 08:48:32;;;;;;;17.90;8.73;;;-0.30;99.90;;;;;;6304929;22;20074;-88
2022/01/14 08:50:58;;;;;;;24.13;9.43;;;-0.20;99.90;;;;;;6279059;22;20437;-88
2022/01/14 08:53:24;;;;;;;19.63;9.57;;;-0.20;99.90;;;;;;6280407;22;20010;-89
2022/01/14 08:55:49;;;;;;;19.23;8.77;;;-0.10;99.90;;;;;;6305189;22;20010;-88
2022/01/14 08:58:15;;;;;;;21.10;8.43;;;-0.20;99.90;;;;;;6279055;22;20007;-88
2022/01/14 09:00:41;;;;;;;14.93;7.20;;;-0.10;99.90;;;;;;6303529;22;20479;-88
2022/01/14 09:03:07;;;;;;;17.43;8.23;;;-0.10;99.90;;;;;;6304005;22;20010;-88
2022/01/14 09:05:33;;;;;;;21.50;9.23;;;-0.10;99.90;;;;;;6304480;22;20006;-88
2022/01/14 09:08:00;;;;;;;19.47;8.27;;;-0.10;99.90;;;;;;6278793;22;20070;-88
2022/01/14 09:10:26;;;;;;;27.33;8.73;;;-0.20;99.90;;;;;;6278005;22;20003;-87
2022/01/14 09:12:51;;;;;;;23.47;8.27;;;-0.20;99.90;;;;;;6278590;22;20012;-88
2022/01/14 09:15:17;;;;;;;16.73;8.27;;;-0.20;99.90;;;;;;6304474;22;20069;-89
2022/01/14 09:17:43;;;;;;;17.63;8.27;;;-0.20;99.90;;;;;;6304684;22;20473;-89
2022/01/14 09:20:11;;;;;;;17.80;7.10;;;-0.20;99.90;;;;;;6277469;22;20018;-87
2022/01/14 09:22:37;;;;;;;17.73;8.33;;;-0.20;99.90;;;;;;6278087;22;20021;-88
2022/01/14 09:25:04;;;;;;;17.50;8.20;;;0.00;99.90;;;;;;6304280;22;20338;-88
2022/01/14 09:27:32;;;;;;;17.87;7.50;;;0.00;99.90;;;;;;6277834;22;20033;-87
2022/01/14 09:29:59;;;;;;;18.90;8.00;;;0.10;99.90;;;;;;6277999;22;20022;-88
2022/01/14 09:32:25;;;;;;;14.43;6.97;;;0.30;99.90;;;;;;6305717;22;20003;-88
2022/01/14 09:34:51;;;;;;;17.30;7.80;;;0.40;99.90;;;;;;6277927;22;20436;-89
2022/01/14 09:37:17;;;;;;;14.83;8.07;;;0.60;99.90;;;;;;6304098;22;20015;-88
2022/01/14 09:39:45;;;;;;;20.53;8.17;;;0.70;99.90;;;;;;6305275;22;20052;-88
2022/01/14 09:42:15;;;;;;;23.60;8.63;;;0.70;99.90;;;;;;6303477;22;20031;-88
2022/01/14 09:44:43;;;;;;;20.03;7.97;;;0.70;99.90;;;;;;6303498;22;20084;-87
2022/01/14 09:47:09;;;;;;;16.37;7.33;;;0.70;99.90;;;;;;6277270;22;20003;-86
2022/01/14 09:49:36;;;;;;;16.13;6.57;;;0.70;99.90;;;;;;6305686;22;20002;-87
2022/01/14 09:52:03;;;;;;;19.67;7.43;;;0.70;99.90;;;;;;6302165;22;20025;-88
2022/01/14 09:54:30;;;;;;;17.73;7.37;;;0.80;99.90;;;;;;6303523;22;20433;-87
2022/01/14 09:56:56;;;;;;;13.57;6.00;;;0.80;99.90;;;;;;6303341;22;19999;-88
2022/01/14 09:59:21;;;;;;;13.80;6.80;;;0.90;99.90;;;;;;6305302;22;20003;-88
2022/01/14 10:01:49;;;;;;;17.80;8.30;;;0.90;99.90;;;;;;6304512;22;20007;-87
2022/01/14 10:04:17;;;;;;;19.13;8.67;;;1.00;99.90;;;;;;6278278;22;19999;-88
2022/01/14 10:06:47;;;;;;;18.30;8.27;;;1.00;99.90;;;;;;6278505;22;20061;-89
2022/01/14 10:09:22;;;;;;;16.80;8.10;;;1.00;99.90;;;;;;6278111;22;20003;-88
2022/01/14 10:12:11;;;;;;;16.90;7.40;;;1.00;99.90;;;;;;6305018;22;19999;-88
2022/01/14 10:14:43;;;;;;;17.23;7.57;;;1.10;99.90;;;;;;6279412;22;20057;-89
2022/01/14 10:17:11;;;;;;;17.25;7.93;;;1.10;99.90;;;;;;6279319;22;20003;-89
2022/01/14 10:19:43;;;;;;;15.43;7.30;;;1.20;99.90;;;;;;6277713;22;20371;-89
2022/01/14 10:22:21;;;;;;;;;;;1.20;99.90;;;;;;6278439;22;20003;-88
2022/01/14 10:25:01;;;;;;;16.43;7.27;;;1.30;99.90;;;;;;6304147;22;19898;-89
2022/01/14 10:27:34;;;;;;;19.43;6.90;;;1.40;99.90;;;;;;6277715;22;19999;-88
2022/01/14 10:30:11;;;;;;;14.87;7.50;;;1.50;99.90;;;;;;6303065;22;20011;-88
2022/01/14 10:32:38;;;;;;;14.83;7.17;;;1.60;99.90;;;;;;6303349;22;20003;-89
2022/01/14 10:35:09;;;;;;;20.30;6.90;;;1.70;99.90;;;;;;6277745;22;20022;-88
2022/01/14 10:37:35;;;;;;;15.70;6.57;;;1.80;99.90;;;;;;6277693;22;20489;-89
2022/01/14 10:40:04;;;;;;;14.83;6.30;;;1.90;99.90;;;;;;6277896;22;20013;-88
2022/01/14 10:42:36;;;;;;;16.40;6.60;;;1.90;99.90;;;;;;6277579;22;20011;-86
2022/01/14 10:45:23;;;;;;;16.17;6.77;;;2.00;99.90;;;;;;6305262;22;20054;-88
2022/01/14 10:48:02;;;;;;;11.83;6.17;;;2.10;99.90;;;;;;6277404;22;20310;-88
2022/01/14 10:50:38;;;;;;;13.90;6.23;;;2.20;99.90;;;;;;6303091;22;20011;-89
2022/01/14 10:53:11;;;;;;;16.10;6.13;;;2.30;99.90;;;;;;6305318;22;20026;-88
2022/01/14 10:55:40;;;;;;;17.63;7.47;;;2.40;99.90;;;;;;6294875;22;20003;-88
2022/01/14 10:58:22;;;;;;;19.97;6.70;;;2.50;99.90;;;;;;6298525;22;20158;-88
2022/01/14 11:00:54;;;;;;;14.27;6.47;;;2.50;99.90;;;;;;6295590;22;20004;-88
2022/01/14 11:03:38;;;;;;;15.02;6.68;;;2.50;99.90;;;;;;6279249;22;20006;-89
2022/01/14 11:06:25;;;;;;;16.90;7.10;;;2.60;99.90;;;;;;6279491;22;20393;-89
2022/01/14 11:08:57;;;;;;;13.27;6.60;;;2.70;99.90;;;;;;6305220;22;20496;-87
2022/01/14 11:11:24;;;;;;;13.30;5.75;;;2.80;99.90;;;;;;6302584;22;20011;-86
2022/01/14 11:13:50;;;;;;;12.67;5.63;;;2.90;99.90;;;;;;6306591;22;20007;-88
2022/01/14 11:16:16;;;;;;;13.30;6.33;;;2.90;99.90;;;;;;6304263;22;20310;-87
2022/01/14 11:18:42;;;;;;;12.97;6.33;;;3.00;99.90;;;;;;6304988;22;20033;-88
2022/01/14 11:23:52;;;;;;;13.43;6.00;;;3.10;99.90;;;;;;6304922;22;20036;-87
2022/01/14 11:26:20;;;;;;;12.27;6.37;;;3.20;99.90;;;;;;6303517;22;19999;-88
2022/01/14 11:28:47;;;;;;;12.97;6.17;;;3.20;99.90;;;;;;6277944;22;20398;-88
2022/01/14 11:31:35;;;;;;;14.70;6.50;;;3.30;99.90;;;;;;6277085;22;20003;-86
2022/01/14 11:34:03;;;;;;;10.97;5.57;;;3.40;99.90;;;;;;6278940;22;20003;-88
2022/01/14 11:36:58;;;;;;;12.50;5.97;;;3.50;99.90;;;;;;6304449;22;20073;-88
2022/01/14 11:39:27;;;;;;;13.53;6.07;;;3.60;99.90;;;;;;6290838;22;20380;-88
2022/01/14 11:41:55;;;;;;;11.73;6.53;;;3.70;99.90;;;;;;6277551;22;20030;-88
2022/01/14 11:44:43;;;;;;;11.70;5.70;;;3.80;99.90;;;;;;6306232;22;20000;-88
2022/01/14 11:47:47;;;;;;;17.43;5.87;;;3.80;99.90;;;;;;6305400;22;20026;-87
2022/01/14 11:50:19;;;;;;;14.10;6.00;;;3.90;99.90;;;;;;6306929;22;20056;-87
2022/01/14 11:52:46;;;;;;;11.83;6.13;;;4.00;99.90;;;;;;6305680;22;20049;-87
2022/01/14 11:55:15;;;;;;;17.67;6.63;;;4.10;99.90;;;;;;6280434;22;20053;-88
2022/01/14 11:57:46;;;;;;;12.23;6.10;;;4.20;99.90;;;;;;6305801;22;20051;-88
2022/01/14 12:00:27;;;;;;;15.20;6.28;;;4.20;99.90;;;;;;6307162;22;20071;-87
2022/01/14 12:02:54;;;;;;;18.10;5.47;;;4.30;99.90;;;;;;6305315;22;20049;-88
2022/01/14 12:05:25;;;;;;;14.20;5.73;;;4.30;99.90;;;;;;6279862;22;20007;-88
2022/01/14 12:08:12;;;;;;;13.27;5.83;;;4.30;99.90;;;;;;6279381;22;20555;-88
2022/01/14 12:10:44;;;;;;;13.17;6.17;;;4.40;99.90;;;;;;6306195;22;20567;-88
2022/01/14 12:18:58;;;;;;;12.53;5.13;;;4.60;99.90;;;;;;6316886;22;20034;-87
2022/01/14 12:21:48;;;;;;;12.27;5.60;;;4.80;99.90;;;;;;6312882;22;20026;-87
2022/01/14 12:24:27;;;;;;;12.13;4.70;;;4.70;99.90;;;;;;6305440;22;19995;-88
2022/01/14 12:27:07;;;;;;;14.93;5.77;;;4.70;99.90;;;;;;6304516;22;20019;-87
2022/01/14 12:29:35;;;;;;;12.77;6.20;;;4.70;99.90;;;;;;6305765;22;20071;-88
2022/01/14 12:32:08;;;;;;;11.67;5.90;;;4.80;99.90;;;;;;6305106;22;20067;-89
2022/01/14 12:34:53;;;;;;;;;;;4.80;99.90;;;;;;6306995;22;20000;-87
2022/01/14 12:37:29;;;;;;;11.83;5.70;;;4.90;99.90;;;;;;6263445;22;19914;-87
2022/01/14 12:39:57;;;;;;;19.80;7.80;;;4.90;99.90;;;;;;6307802;22;20003;-88
2022/01/14 12:42:24;;;;;;;16.13;6.53;;;4.80;99.90;;;;;;6284085;22;20034;-88
2022/01/14 12:44:52;;;;;;;18.23;7.13;;;4.90;99.90;;;;;;6308768;22;20003;-87
2022/01/14 12:47:26;;;;;;;13.87;6.87;;;4.90;99.90;;;;;;6280321;22;20014;-87
2022/01/14 12:49:52;;;;;;;15.00;6.40;;;4.90;99.90;;;;;;6279637;22;20030;-87
2022/01/14 12:52:30;;;;;;;12.80;6.37;;;4.90;99.90;;;;;;6306474;22;20375;-88
2022/01/14 12:54:56;;;;;;;15.97;7.00;;;4.90;99.90;;;;;;6309612;22;20018;-88
2022/01/14 12:57:24;;;;;;;20.27;6.27;;;5.00;99.90;;;;;;6277578;22;20003;-88
2022/01/14 12:59:52;;;;;;;13.47;5.70;;;5.10;99.90;;;;;;6278442;22;20008;-87
2022/01/14 13:02:19;;;;;;;14.17;5.77;;;5.20;99.90;;;;;;6279142;22;20114;-88
2022/01/14 13:04:59;;;;;;;12.17;5.43;;;5.20;99.90;;;;;;6279401;22;20007;-87
2022/01/14 13:07:25;;;;;;;12.43;5.17;;;5.20;99.90;;;;;;6279739;22;20504;-87
2022/01/14 13:09:52;;;;;;;12.47;5.27;;;5.20;99.90;;;;;;6306611;22;20041;-86
2022/01/14 13:12:20;;;;;;;14.77;5.50;;;5.30;99.90;;;;;;6305675;22;20465;-88
2022/01/14 13:15:05;;;;;;;10.83;4.60;;;5.30;99.90;;;;;;6279119;22;20007;-88
2022/01/14 13:17:42;;;;;;;13.67;5.13;;;5.40;99.90;;;;;;6306741;22;20050;-87
2022/01/14 13:20:14;;;;;;;11.30;5.50;;;5.50;99.90;;;;;;6283622;22;20025;-88
2022/01/14 13:22:44;;;;;;;10.73;4.82;;;5.40;99.90;;;;;;6295620;22;20026;-87
2022/01/14 13:25:13;;;;;;;10.83;4.87;;;5.50;99.90;;;;;;6325947;22;20003;-88
2022/01/14 13:27:45;;;;;;;9.70;4.63;;;5.50;99.90;;;;;;6297586;22;20025;-88
2022/01/14 13:30:11;;;;;;;;;;;5.60;99.90;;;;;;6298794;22;20029;-88
2022/01/14 13:32:37;;;;;;;10.33;4.47;;;5.60;99.90;;;;;;6323471;22;19902;-86
2022/01/14 13:35:09;;;;;;;7.30;3.73;;;5.60;99.90;;;;;;6314239;22;20052;-87
2022/01/14 13:37:37;;;;;;;10.40;4.00;;;5.70;99.90;;;;;;6304198;22;20037;-88
2022/01/14 13:40:13;;;;;;;9.20;4.40;;;5.70;99.90;;;;;;6278232;22;20027;-87
2022/01/14 13:42:43;;;;;;;10.03;4.03;;;5.80;99.90;;;;;;6306743;22;20007;-87
2022/01/14 13:45:16;;;;;;;8.77;3.50;;;5.90;99.90;;;;;;6279354;22;20007;-87
2022/01/14 13:47:42;;;;;;;8.17;3.80;;;5.90;99.90;;;;;;6278527;22;20030;-88
2022/01/14 13:50:13;;;;;;;9.70;4.40;;;6.00;99.90;;;;;;6304537;22;20011;-87
2022/01/14 13:52:44;;;;;;;9.43;4.00;;;6.00;99.90;;;;;;6280936;22;20007;-87
2022/01/14 13:55:15;;;;;;;8.20;4.00;;;6.10;99.90;;;;;;6279855;22;20057;-88
2022/01/14 13:57:41;;;;;;;7.33;4.17;;;6.10;99.90;;;;;;6281303;22;20094;-88
2022/01/14 14:00:12;;;;;;;9.63;3.90;;;6.20;99.90;;;;;;6304681;22;20010;-87
2022/01/14 14:02:52;;;;;;;8.80;3.73;;;6.20;99.90;;;;;;6307943;22;20014;-87
2022/01/14 14:05:34;;;;;;;18.10;7.07;;;6.20;99.90;;;;;;6305439;22;20039;-88
2022/01/14 14:08:10;;;;;;;18.60;7.25;;;6.30;99.90;;;;;;6305898;22;20023;-88
2022/01/14 14:11:47;;;;;;;8.73;3.97;;;6.30;99.90;;;;;;6279145;22;20007;-88